createdAt,value
2018-05-24T00:00:19.898Z,97678.35
2018-05-24T00:02:50.317Z,97680.49
2018-05-24T00:05:20.145Z,97681.12
2018-05-24T00:07:49.831Z,97675.72
2018-05-24T00:10:21.487Z,97669.21
2018-05-24T00:12:51.212Z,97677.48
2018-05-24T00:15:21.237Z,97672.06
2018-05-24T00:17:51.977Z,97672.98
2018-05-24T00:20:21.942Z,97675.30
2018-05-24T00:22:52.242Z,97685.77
2018-05-24T00:25:22.796Z,97684.13
2018-05-24T00:27:52.688Z,97682.27
2018-05-24T00:30:22.545Z,97685.27
2018-05-24T00:32:53.332Z,97675.38
2018-05-24T00:35:23.761Z,97676.33
2018-05-24T00:37:53.425Z,97677.11
2018-05-24T00:40:23.657Z,97686.42
2018-05-24T00:42:55.426Z,97688.12
2018-05-24T00:45:25.670Z,97682.64
2018-05-24T00:47:55.424Z,97684.72
2018-05-24T00:50:25.283Z,97679.62
2018-05-24T00:52:55.104Z,97683.59
2018-05-24T00:55:41.468Z,97683.00
2018-05-24T00:58:11.420Z,97680.09
2018-05-24T01:00:41.300Z,97680.72
2018-05-24T01:03:11.736Z,97681.39
2018-05-24T01:05:43.747Z,97677.03
2018-05-24T01:08:13.543Z,97673.77
2018-05-24T01:10:44.275Z,97674.23
2018-05-24T01:13:14.826Z,97668.68
2018-05-24T01:15:45.457Z,97670.11
2018-05-24T01:18:14.957Z,97664.62
2018-05-24T01:20:45.036Z,97658.89
2018-05-24T01:23:14.921Z,97656.81
2018-05-24T01:25:46.842Z,97660.63
2018-05-24T01:28:16.660Z,97657.66
2018-05-24T01:30:46.424Z,97659.01
2018-05-24T01:33:16.300Z,97660.37
2018-05-24T01:35:46.844Z,97662.61
2018-05-24T01:38:16.523Z,97659.84
2018-05-24T01:40:46.328Z,97663.20
2018-05-24T01:43:16.114Z,97659.97
2018-05-24T01:45:45.648Z,97663.20
2018-05-24T01:48:15.244Z,97669.15
2018-05-24T01:50:44.835Z,97662.82
2018-05-24T01:53:14.460Z,97665.14
2018-05-24T01:55:44.998Z,97667.56
2018-05-24T01:58:14.539Z,97664.27
2018-05-24T02:00:45.681Z,97664.53
2018-05-24T02:03:16.618Z,97660.47
2018-05-24T02:05:47.017Z,97668.44
2018-05-24T02:08:16.615Z,97673.34
2018-05-24T02:10:47.265Z,97673.98
2018-05-24T02:13:17.069Z,97672.91
2018-05-24T02:15:46.568Z,97678.39
2018-05-24T02:18:16.892Z,97675.31
2018-05-24T02:20:46.613Z,97674.45
2018-05-24T02:23:16.252Z,97677.95
2018-05-24T02:25:46.792Z,97680.31
2018-05-24T02:28:17.154Z,97679.78
2018-05-24T02:30:47.071Z,97676.14
2018-05-24T02:33:16.578Z,97680.09
2018-05-24T02:35:46.833Z,97676.97
2018-05-24T02:38:18.896Z,97673.36
2018-05-24T02:40:48.604Z,97676.56
2018-05-24T02:43:18.136Z,97673.41
2018-05-24T02:45:48.678Z,97674.75
2018-05-24T02:48:18.500Z,97678.20
2018-05-24T02:50:48.039Z,97676.59
2018-05-24T02:53:17.586Z,97671.78
2018-05-24T02:55:47.280Z,97678.84
2018-05-24T02:58:18.331Z,97679.22
2018-05-24T03:00:48.019Z,97685.38
2018-05-24T03:03:32.128Z,97685.08
2018-05-24T03:06:02.583Z,97694.02
2018-05-24T03:08:32.156Z,97696.31
2018-05-24T03:11:02.341Z,97692.30
2018-05-24T03:13:32.542Z,97696.88
2018-05-24T03:16:02.513Z,97697.90
2018-05-24T03:18:32.231Z,97697.48
2018-05-24T03:21:09.595Z,97695.53
2018-05-24T03:23:39.272Z,97699.36
2018-05-24T03:26:08.768Z,97699.93
2018-05-24T03:28:38.296Z,97701.34
2018-05-24T03:31:07.907Z,97701.47
2018-05-24T03:33:37.623Z,97700.42
2018-05-24T03:36:07.419Z,97698.98
2018-05-24T03:38:37.011Z,97710.59
2018-05-24T03:41:07.585Z,97715.03
2018-05-24T03:43:37.691Z,97707.02
2018-05-24T03:46:07.507Z,97706.00
2018-05-24T03:48:38.425Z,97706.64
2018-05-24T03:51:08.205Z,97703.53
2018-05-24T03:53:37.748Z,97712.39
2018-05-24T03:56:07.327Z,97712.30
2018-05-24T03:58:36.996Z,97711.55
2018-05-24T04:01:24.288Z,97715.36
2018-05-24T04:03:53.741Z,97718.44
2018-05-24T04:06:23.807Z,97717.31
2018-05-24T04:08:54.870Z,97713.33
